createdAt,value
2023-04-16T00:00:08.199Z,93447.74
2023-04-16T00:01:04.830Z,93446.67
2023-04-16T00:01:39.591Z,93447.27
2023-04-16T00:02:13.267Z,93448.63
2023-04-16T00:02:46.940Z,93448.17
2023-04-16T00:03:20.859Z,93448.73
2023-04-16T00:03:55.948Z,93445.27
2023-04-16T00:04:29.706Z,93452.60
2023-04-16T00:05:04.536Z,93449.27
2023-04-16T00:05:38.106Z,93450.49
2023-04-16T00:06:12.807Z,93448.55
2023-04-16T00:06:46.470Z,93450.92
2023-04-16T00:07:19.858Z,93451.41
2023-04-16T00:07:53.461Z,93452.86
2023-04-16T00:08:26.914Z,93449.94
2023-04-16T00:09:00.425Z,93452.27
2023-04-16T00:09:34.004Z,93451.45
2023-04-16T00:10:08.147Z,93453.04
2023-04-16T00:10:43.406Z,93454.55
2023-04-16T00:11:20.205Z,93456.38
2023-04-16T00:11:55.113Z,93455.60
2023-04-16T00:12:28.598Z,93456.23
2023-04-16T00:13:02.058Z,93453.46
2023-04-16T00:13:35.788Z,93456.46
2023-04-16T00:14:09.222Z,93457.02
2023-04-16T00:14:43.786Z,93452.04
2023-04-16T00:15:17.204Z,93451.89
2023-04-16T00:15:50.797Z,93452.81
2023-04-16T00:16:24.239Z,93456.55
2023-04-16T00:16:57.681Z,93454.94
2023-04-16T00:17:31.316Z,93457.66
2023-04-16T00:18:05.719Z,93458.82
2023-04-16T00:18:41.374Z,93455.09
2023-04-16T00:19:14.843Z,93457.17
2023-04-16T00:19:48.153Z,93456.89
2023-04-16T00:20:22.752Z,93457.17
2023-04-16T00:20:56.107Z,93455.10
2023-04-16T00:21:29.547Z,93455.08
2023-04-16T00:22:02.829Z,93457.38
2023-04-16T00:22:36.264Z,93457.77
2023-04-16T00:23:09.641Z,93455.80
2023-04-16T00:23:42.832Z,93459.08
2023-04-16T00:24:16.227Z,93460.80
2023-04-16T00:24:49.640Z,93459.36
2023-04-16T00:25:22.994Z,93460.06
2023-04-16T00:26:00.181Z,93459.39
2023-04-16T00:26:36.234Z,93458.10
2023-04-16T00:27:09.600Z,93461.70
2023-04-16T00:27:42.847Z,93458.69
2023-04-16T00:28:16.350Z,93457.73
2023-04-16T00:28:49.713Z,93458.92
2023-04-16T00:29:23.415Z,93460.28
2023-04-16T00:29:56.837Z,93459.04
2023-04-16T00:30:30.187Z,93458.64
2023-04-16T00:31:03.674Z,93455.15
2023-04-16T00:31:37.281Z,93454.98
2023-04-16T00:32:10.552Z,93456.16
2023-04-16T00:32:43.926Z,93456.41
2023-04-16T00:33:17.912Z,93450.04
2023-04-16T00:33:51.352Z,93455.48
2023-04-16T00:34:24.791Z,93453.55
2023-04-16T00:34:58.250Z,93455.61
2023-04-16T00:35:31.766Z,93453.64
2023-04-16T00:36:05.865Z,93457.89
2023-04-16T00:36:39.256Z,93453.73
2023-04-16T00:37:14.463Z,93455.44
2023-04-16T00:37:49.318Z,93457.14
2023-04-16T00:38:22.726Z,93457.02
2023-04-16T00:38:57.183Z,93454.79
2023-04-16T00:39:30.525Z,93452.42
2023-04-16T00:40:04.143Z,93457.91
2023-04-16T00:40:37.846Z,93457.27
2023-04-16T00:41:11.171Z,93458.14
2023-04-16T00:41:44.936Z,93458.30
2023-04-16T00:42:18.162Z,93457.66
2023-04-16T00:42:51.781Z,93460.30
2023-04-16T00:43:27.963Z,93458.22
2023-04-16T00:44:01.509Z,93457.23
2023-04-16T00:44:37.965Z,93459.05
2023-04-16T00:45:11.948Z,93458.60
2023-04-16T00:45:46.110Z,93457.23
2023-04-16T00:46:21.486Z,93457.65
2023-04-16T00:46:56.501Z,93460.41
2023-04-16T00:47:30.141Z,93457.99
2023-04-16T00:48:04.935Z,93456.76
2023-04-16T00:48:40.109Z,93458.09
2023-04-16T00:49:13.538Z,93457.87
2023-04-16T00:49:47.224Z,93460.80
2023-04-16T00:50:20.901Z,93459.80
2023-04-16T00:50:55.651Z,93458.27
2023-04-16T00:51:29.271Z,93458.63
2023-04-16T00:52:03.629Z,93461.00
2023-04-16T00:52:37.738Z,93459.27
2023-04-16T00:53:14.123Z,93456.67
2023-04-16T00:53:48.450Z,93454.59
2023-04-16T00:54:22.169Z,93456.63
2023-04-16T00:54:56.655Z,93460.48
2023-04-16T00:55:30.061Z,93458.52
2023-04-16T00:56:05.872Z,93456.57
2023-04-16T00:56:40.104Z,93455.85
2023-04-16T00:57:15.187Z,93459.41
2023-04-16T00:57:48.640Z,93463.58
2023-04-16T00:58:22.277Z,93458.70
2023-04-16T00:58:58.926Z,93460.09
2023-04-16T00:59:32.814Z,93460.18
2023-04-16T01:00:06.886Z,93455.98
2023-04-16T01:00:40.408Z,93456.38
2023-04-16T01:01:14.713Z,93457.58
2023-04-16T01:01:48.233Z,93460.56
2023-04-16T01:02:21.991Z,93459.67
2023-04-16T01:02:57.245Z,93455.83
2023-04-16T01:03:41.349Z,93457.81
2023-04-16T01:04:15.340Z,93459.08
2023-04-16T01:04:49.253Z,93456.64
2023-04-16T01:05:22.560Z,93458.44
2023-04-16T01:05:56.099Z,93455.52
2023-04-16T01:06:29.507Z,93457.81
2023-04-16T01:07:02.898Z,93457.47
2023-04-16T01:07:36.538Z,93457.73
2023-04-16T01:08:18.863Z,93459.15
2023-04-16T01:08:52.486Z,93457.90
2023-04-16T01:09:26.552Z,93457.00
2023-04-16T01:10:00.150Z,93454.79
2023-04-16T01:10:33.888Z,93455.98
2023-04-16T01:11:07.938Z,93455.56
2023-04-16T01:11:41.304Z,93454.66
2023-04-16T01:12:14.738Z,93455.77
2023-04-16T01:12:48.141Z,93456.36
2023-04-16T01:13:21.465Z,93455.83
2023-04-16T01:13:54.938Z,93456.98
2023-04-16T01:14:28.567Z,93454.99
2023-04-16T01:15:02.199Z,93453.09
2023-04-16T01:15:36.191Z,93458.14
2023-04-16T01:16:11.872Z,93456.19
2023-04-16T01:16:45.261Z,93459.65
2023-04-16T01:17:18.815Z,93458.35
2023-04-16T01:17:52.561Z,93462.49
2023-04-16T01:18:27.094Z,93462.30
2023-04-16T01:19:00.426Z,93461.41
2023-04-16T01:19:36.473Z,93460.17
2023-04-16T01:20:10.216Z,93461.06
2023-04-16T01:20:44.192Z,93463.93
2023-04-16T01:21:18.173Z,93462.44
2023-04-16T01:21:51.767Z,93462.16
2023-04-16T01:22:25.269Z,93461.90
2023-04-16T01:22:58.703Z,93463.11
2023-04-16T01:23:32.743Z,93464.58
2023-04-16T01:24:06.840Z,93463.77
2023-04-16T01:24:40.762Z,93467.17
2023-04-16T01:25:16.910Z,93463.96
2023-04-16T01:25:51.210Z,93466.16
2023-04-16T01:26:24.739Z,93464.89
2023-04-16T01:27:01.337Z,93465.69
2023-04-16T01:27:34.848Z,93451.15
2023-04-16T01:28:08.728Z,93467.23
2023-04-16T01:28:42.344Z,93464.45
2023-04-16T01:29:15.874Z,93465.90
2023-04-16T01:29:49.508Z,93467.64
2023-04-16T01:30:26.561Z,93472.23
2023-04-16T01:31:10.182Z,93469.78
2023-04-16T01:31:52.169Z,93470.48
2023-04-16T01:32:34.091Z,93472.80
2023-04-16T01:33:08.545Z,93471.13
2023-04-16T01:33:47.669Z,93469.80
2023-04-16T01:34:21.345Z,93474.24
2023-04-16T01:34:55.184Z,93472.33
2023-04-16T01:35:29.392Z,93474.27
2023-04-16T01:36:03.979Z,93475.23
2023-04-16T01:36:38.184Z,93473.27
2023-04-16T01:37:13.069Z,93474.20
2023-04-16T01:37:47.813Z,93474.27
2023-04-16T01:38:22.716Z,93476.56
2023-04-16T01:38:57.512Z,93477.48
2023-04-16T01:39:32.547Z,93475.22
2023-04-16T01:40:07.101Z,93477.26
2023-04-16T01:40:40.549Z,93477.58
2023-04-16T01:41:14.033Z,93474.59
2023-04-16T01:41:48.010Z,93479.64
2023-04-16T01:42:21.446Z,93476.93
2023-04-16T01:42:55.697Z,93476.91
2023-04-16T01:43:29.034Z,93475.76
2023-04-16T01:44:02.313Z,93476.83
2023-04-16T01:44:36.856Z,93480.79
2023-04-16T01:45:11.911Z,93478.88
2023-04-16T01:45:45.961Z,93474.74
2023-04-16T01:46:25.364Z,93475.82
2023-04-16T01:46:59.373Z,93476.18
2023-04-16T01:47:39.183Z,93477.16
2023-04-16T01:48:13.133Z,93474.48
2023-04-16T01:48:59.084Z,93473.31
2023-04-16T01:50:44.779Z,93472.36
2023-04-16T01:51:18.206Z,93471.77
2023-04-16T01:51:54.472Z,93474.85
2023-04-16T01:52:27.802Z,93471.09
2023-04-16T01:53:02.398Z,93471.91
2023-04-16T01:53:37.231Z,93475.01
2023-04-16T01:54:10.848Z,93471.20
2023-04-16T01:54:44.217Z,93475.17
2023-04-16T01:55:17.559Z,93473.76
2023-04-16T01:55:50.892Z,93474.23
2023-04-16T01:56:24.218Z,93476.20
2023-04-16T01:56:57.884Z,93474.64
2023-04-16T01:57:31.110Z,93476.75
2023-04-16T01:58:04.539Z,93474.75
2023-04-16T01:58:42.374Z,93476.84
2023-04-16T01:59:15.881Z,93476.98
2023-04-16T01:59:49.287Z,93464.64
2023-04-16T02:00:22.965Z,93474.79
2023-04-16T02:00:59.197Z,93478.65
2023-04-16T02:01:32.921Z,93476.27
2023-04-16T02:02:11.576Z,93479.75
2023-04-16T02:02:46.764Z,93477.48
2023-04-16T02:03:21.858Z,93478.09
2023-04-16T02:03:55.340Z,93479.62
2023-04-16T02:04:29.006Z,93475.80
2023-04-16T02:05:06.133Z,93478.52
2023-04-16T02:05:39.561Z,93469.79
2023-04-16T02:06:12.916Z,93478.09
2023-04-16T02:06:46.270Z,93480.25
2023-04-16T02:07:20.528Z,93480.21
2023-04-16T02:07:53.955Z,93477.50
2023-04-16T02:08:27.743Z,93479.21
2023-04-16T02:09:01.129Z,93477.01
2023-04-16T02:09:39.862Z,93480.61
2023-04-16T02:10:14.817Z,93476.60
2023-04-16T02:10:50.443Z,93480.34
2023-04-16T02:11:23.871Z,93478.95
2023-04-16T02:11:57.502Z,93480.39
2023-04-16T02:12:31.312Z,93477.54
2023-04-16T02:13:04.634Z,93474.86
2023-04-16T02:13:38.445Z,93479.29
2023-04-16T02:14:12.194Z,93481.86
2023-04-16T02:14:45.778Z,93477.55
2023-04-16T02:15:20.796Z,93475.81
2023-04-16T02:15:54.471Z,93475.63
2023-04-16T02:16:44.273Z,93475.77
2023-04-16T02:17:29.788Z,93477.23
2023-04-16T02:18:17.207Z,93478.45
2023-04-16T02:18:50.932Z,93476.45
2023-04-16T02:19:25.784Z,93481.95
2023-04-16T02:20:00.297Z,93483.73
2023-04-16T02:20:33.924Z,93479.34
2023-04-16T02:21:08.052Z,93483.61
2023-04-16T02:21:41.971Z,93481.55
2023-04-16T02:22:15.668Z,93479.20
2023-04-16T02:22:48.996Z,93480.39
2023-04-16T02:23:24.255Z,93483.27
2023-04-16T02:23:57.764Z,93481.86
2023-04-16T02:24:34.077Z,93483.39
2023-04-16T02:25:10.631Z,93487.23
2023-04-16T02:25:49.227Z,93487.67
2023-04-16T02:26:22.668Z,93489.03
2023-04-16T02:26:57.168Z,93484.00
2023-04-16T02:27:30.886Z,93487.85
2023-04-16T02:28:14.724Z,93491.04
2023-04-16T02:28:48.555Z,93491.80
2023-04-16T02:29:25.112Z,93490.91
2023-04-16T02:30:04.736Z,93494.09
2023-04-16T02:30:40.194Z,93492.41
2023-04-16T02:31:13.847Z,93492.65
2023-04-16T02:31:50.310Z,93490.60
2023-04-16T02:32:24.143Z,93493.69
2023-04-16T02:32:57.531Z,93493.27
2023-04-16T02:33:32.150Z,93488.63
2023-04-16T02:34:07.774Z,93488.33
2023-04-16T02:34:41.837Z,93493.52
2023-04-16T02:35:15.119Z,93491.19
2023-04-16T02:35:48.975Z,93495.36
2023-04-16T02:36:22.300Z,93487.64
2023-04-16T02:36:55.648Z,93493.69
2023-04-16T02:37:29.128Z,93493.73
2023-04-16T02:38:04.428Z,93495.06
2023-04-16T02:38:38.329Z,93496.61
2023-04-16T02:39:12.220Z,93496.86
2023-04-16T02:39:46.521Z,93495.95
2023-04-16T02:40:22.392Z,93494.58
2023-04-16T02:40:56.033Z,93495.19
2023-04-16T02:41:29.675Z,93497.10
2023-04-16T02:42:03.387Z,93498.35
2023-04-16T02:42:36.818Z,93489.47
2023-04-16T02:43:10.158Z,93497.88
2023-04-16T02:43:43.606Z,93500.23
2023-04-16T02:44:17.124Z,93499.30
2023-04-16T02:44:50.698Z,93499.55
2023-04-16T02:45:24.936Z,93500.51
2023-04-16T02:45:59.668Z,93501.60
2023-04-16T02:46:33.075Z,93502.89
2023-04-16T02:47:06.674Z,93503.02
2023-04-16T02:47:43.110Z,93504.00
2023-04-16T02:48:16.377Z,93503.64
2023-04-16T02:48:49.746Z,93504.80
2023-04-16T02:49:23.184Z,93505.67
2023-04-16T02:49:56.501Z,93505.97
2023-04-16T02:50:29.774Z,93505.02
2023-04-16T02:51:03.426Z,93504.33
2023-04-16T02:51:36.850Z,93506.65
2023-04-16T02:52:10.186Z,93505.36
2023-04-16T02:52:43.605Z,93507.64
2023-04-16T02:53:17.149Z,93505.88
2023-04-16T02:53:50.760Z,93506.87
2023-04-16T02:54:25.294Z,93508.88
2023-04-16T02:54:58.831Z,93503.15
2023-04-16T02:55:32.354Z,93507.42
2023-04-16T02:56:06.546Z,93506.15
2023-04-16T02:56:40.099Z,93505.41
2023-04-16T02:57:13.649Z,93505.95
2023-04-16T02:57:48.003Z,93507.98
2023-04-16T02:58:24.465Z,93508.16
2023-04-16T02:58:58.013Z,93509.98
2023-04-16T02:59:31.576Z,93508.00
2023-04-16T03:00:05.699Z,93506.86
2023-04-16T03:00:39.152Z,93509.67
2023-04-16T03:01:12.743Z,93508.73
2023-04-16T03:01:46.714Z,93510.39
2023-04-16T03:02:20.311Z,93506.28
2023-04-16T03:02:53.791Z,93501.94
2023-04-16T03:03:27.464Z,93509.04
2023-04-16T03:04:01.299Z,93506.85
2023-04-16T03:04:36.469Z,93496.58
2023-04-16T03:05:10.694Z,93505.86
2023-04-16T03:05:44.449Z,93508.35
2023-04-16T03:06:17.913Z,93509.59
2023-04-16T03:06:51.566Z,93511.68
2023-04-16T03:07:24.843Z,93508.66
2023-04-16T03:07:58.117Z,93508.73
2023-04-16T03:08:31.497Z,93512.02
2023-04-16T03:09:04.905Z,93512.35
2023-04-16T03:09:39.799Z,93511.10
2023-04-16T03:10:14.119Z,93513.35
2023-04-16T03:10:47.464Z,93517.15
2023-04-16T03:11:21.550Z,93512.55
2023-04-16T03:11:54.928Z,93514.41
2023-04-16T03:12:28.458Z,93517.46
2023-04-16T03:13:02.456Z,93509.61
2023-04-16T03:13:36.590Z,93514.52
2023-04-16T03:14:09.955Z,93515.52
2023-04-16T03:14:43.556Z,93517.08
2023-04-16T03:15:17.199Z,93517.88
2023-04-16T03:15:50.926Z,93519.61
2023-04-16T03:16:24.440Z,93518.69
2023-04-16T03:16:58.812Z,93520.20
2023-04-16T03:17:32.346Z,93509.86
2023-04-16T03:18:05.881Z,93518.12
2023-04-16T03:18:39.284Z,93519.25
2023-04-16T03:19:12.828Z,93517.27
2023-04-16T03:19:46.412Z,93518.08
2023-04-16T03:20:20.426Z,93520.92
2023-04-16T03:20:54.409Z,93523.85
2023-04-16T03:21:28.170Z,93522.67
2023-04-16T03:22:01.607Z,93520.98
2023-04-16T03:22:35.157Z,93522.40
2023-04-16T03:23:08.571Z,93524.44
2023-04-16T03:23:42.106Z,93520.90
2023-04-16T03:24:15.659Z,93521.06
2023-04-16T03:24:49.696Z,93522.34
2023-04-16T03:25:23.376Z,93521.38
2023-04-16T03:25:57.610Z,93522.77
2023-04-16T03:26:31.237Z,93519.77
2023-04-16T03:27:04.850Z,93522.85
2023-04-16T03:27:40.048Z,93519.23
2023-04-16T03:28:13.581Z,93521.15
2023-04-16T03:28:46.972Z,93522.88
2023-04-16T03:29:22.938Z,93525.96
2023-04-16T03:30:00.042Z,93525.84
2023-04-16T03:30:35.502Z,93527.40
2023-04-16T03:31:09.990Z,93525.92
2023-04-16T03:31:44.200Z,93525.66
2023-04-16T03:32:17.783Z,93526.44
2023-04-16T03:32:52.225Z,93525.26
2023-04-16T03:33:26.522Z,93528.19
2023-04-16T03:33:59.949Z,93523.08
2023-04-16T03:34:33.505Z,93528.88
2023-04-16T03:35:07.914Z,93525.88
2023-04-16T03:35:41.635Z,93525.27
2023-04-16T03:36:15.238Z,93528.05
2023-04-16T03:36:48.809Z,93524.16
2023-04-16T03:37:22.233Z,93526.24
2023-04-16T03:38:00.671Z,93527.40
2023-04-16T03:38:39.928Z,93526.86
2023-04-16T03:39:19.933Z,93527.78
2023-04-16T03:39:53.262Z,93526.79
2023-04-16T03:40:26.556Z,93529.92
2023-04-16T03:41:00.128Z,93526.30
2023-04-16T03:41:33.934Z,93525.67
2023-04-16T03:42:07.477Z,93528.98
2023-04-16T03:42:41.407Z,93528.27
2023-04-16T03:43:15.251Z,93532.92
2023-04-16T03:43:49.428Z,93531.69
2023-04-16T03:44:22.978Z,93532.32
2023-04-16T03:44:57.612Z,93532.80
2023-04-16T03:45:31.066Z,93533.52
2023-04-16T03:46:04.773Z,93533.60
2023-04-16T03:46:38.185Z,93530.98
2023-04-16T03:47:11.676Z,93530.95
2023-04-16T03:47:45.206Z,93532.48
2023-04-16T03:48:19.932Z,93535.29
2023-04-16T03:48:54.091Z,93535.30
2023-04-16T03:49:27.758Z,93536.67
2023-04-16T03:50:01.101Z,93532.55
2023-04-16T03:50:34.680Z,93529.04
2023-04-16T03:51:09.378Z,93536.97
2023-04-16T03:51:42.771Z,93538.54
2023-04-16T03:52:16.153Z,93537.63
2023-04-16T03:52:49.594Z,93538.41
2023-04-16T03:53:23.321Z,93537.69
2023-04-16T03:53:56.811Z,93539.77
2023-04-16T03:54:31.739Z,93539.84
2023-04-16T03:55:14.232Z,93542.52
2023-04-16T03:55:53.727Z,93542.63
2023-04-16T03:56:27.356Z,93543.55
2023-04-16T03:57:01.239Z,93544.92
2023-04-16T03:57:34.949Z,93550.15
2023-04-16T03:58:12.331Z,93545.85
2023-04-16T03:58:45.598Z,93551.73
2023-04-16T03:59:18.959Z,93551.72
2023-04-16T03:59:52.293Z,93555.41
2023-04-16T04:00:25.768Z,93550.48
2023-04-16T04:01:04.249Z,93547.70
2023-04-16T04:01:37.505Z,93556.69
2023-04-16T04:02:11.631Z,93558.61
2023-04-16T04:02:45.204Z,93558.25
2023-04-16T04:03:23.533Z,93557.30
2023-04-16T04:03:57.367Z,93557.34
2023-04-16T04:04:31.033Z,93557.52
2023-04-16T04:05:04.595Z,93558.71
2023-04-16T04:05:41.965Z,93556.23
2023-04-16T04:06:16.782Z,93556.26
2023-04-16T04:06:50.120Z,93557.36
2023-04-16T04:07:23.886Z,93559.95
2023-04-16T04:07:58.008Z,93558.86
2023-04-16T04:08:31.212Z,93556.69
2023-04-16T04:09:04.559Z,93560.41
2023-04-16T04:09:37.794Z,93560.02
2023-04-16T04:10:13.163Z,93559.40
2023-04-16T04:10:47.434Z,93560.48
2023-04-16T04:11:20.862Z,93562.02
2023-04-16T04:11:55.130Z,93563.33
2023-04-16T04:12:29.368Z,93559.36
2023-04-16T04:13:05.113Z,93562.24
2023-04-16T04:13:39.098Z,93560.15
2023-04-16T04:14:12.351Z,93560.04
2023-04-16T04:14:45.676Z,93562.23
2023-04-16T04:15:19.026Z,93561.27
2023-04-16T04:15:52.360Z,93560.09
2023-04-16T04:16:27.409Z,93561.50
2023-04-16T04:17:00.953Z,93564.81
2023-04-16T04:17:34.585Z,93562.86
2023-04-16T04:18:08.374Z,93563.38
2023-04-16T04:18:43.299Z,93565.69
2023-04-16T04:19:17.781Z,93568.91
2023-04-16T04:20:00.911Z,93567.90
2023-04-16T04:20:40.307Z,93573.23
2023-04-16T04:21:13.980Z,93570.86
2023-04-16T04:21:47.824Z,93571.82
2023-04-16T04:22:22.714Z,93574.98
2023-04-16T04:22:58.948Z,93578.91
2023-04-16T04:23:32.344Z,93579.39
2023-04-16T04:24:05.791Z,93577.52
2023-04-16T04:24:39.405Z,93579.30
2023-04-16T04:25:12.756Z,93577.20
2023-04-16T04:25:49.018Z,93581.02
2023-04-16T04:26:22.857Z,93577.16
2023-04-16T04:26:57.699Z,93577.15
2023-04-16T04:27:31.082Z,93577.80
2023-04-16T04:28:04.651Z,93579.17
2023-04-16T04:28:37.969Z,93582.30
2023-04-16T04:29:11.574Z,93579.02
2023-04-16T04:29:45.087Z,93582.23
2023-04-16T04:30:18.417Z,93569.96
2023-04-16T04:30:51.854Z,93578.05
2023-04-16T04:31:27.581Z,93572.77
2023-04-16T04:32:01.292Z,93578.20
2023-04-16T04:32:35.073Z,93577.41
2023-04-16T04:33:09.120Z,93580.12
2023-04-16T04:33:44.828Z,93581.29
2023-04-16T04:34:19.389Z,93580.58
2023-04-16T04:34:52.880Z,93578.17
2023-04-16T04:35:26.897Z,93581.39
2023-04-16T04:37:49.158Z,93583.34
2023-04-16T04:38:25.525Z,93582.69
2023-04-16T04:38:58.991Z,93584.35
2023-04-16T04:39:32.467Z,93580.95
2023-04-16T04:40:06.790Z,93585.05
2023-04-16T04:40:41.199Z,93588.14
2023-04-16T04:41:14.728Z,93586.39
2023-04-16T04:41:48.784Z,93584.99
2023-04-16T04:42:23.096Z,93585.66
2023-04-16T04:42:58.221Z,93588.94
2023-04-16T04:43:32.206Z,93588.09
2023-04-16T04:44:06.633Z,93590.50
2023-04-16T04:44:40.005Z,93592.55
2023-04-16T04:45:14.636Z,93594.13
2023-04-16T04:45:49.400Z,93576.45
2023-04-16T04:46:23.504Z,93597.18
2023-04-16T04:46:57.155Z,93596.54
2023-04-16T04:47:30.652Z,93597.00
2023-04-16T04:48:04.454Z,93596.43
2023-04-16T04:48:37.965Z,93599.52
2023-04-16T04:49:11.528Z,93601.29
2023-04-16T04:49:44.951Z,93594.00
2023-04-16T04:50:18.204Z,93599.73
2023-04-16T04:50:51.948Z,93605.75
2023-04-16T04:51:25.395Z,93602.61
2023-04-16T04:51:58.762Z,93603.88
2023-04-16T04:52:32.033Z,93603.69
2023-04-16T04:53:10.412Z,93605.28
2023-04-16T04:53:44.224Z,93609.45
2023-04-16T04:54:17.748Z,93606.80
2023-04-16T04:54:51.143Z,93613.89
2023-04-16T04:55:24.611Z,93610.44
2023-04-16T04:56:08.963Z,93611.29
2023-04-16T04:56:46.232Z,93613.25
2023-04-16T04:57:21.234Z,93615.02
2023-04-16T04:57:58.001Z,93614.77
2023-04-16T04:58:34.566Z,93617.22
2023-04-16T04:59:09.225Z,93616.29
2023-04-16T04:59:42.749Z,93618.13
2023-04-16T05:00:16.963Z,93617.69
2023-04-16T05:00:57.011Z,93619.73
2023-04-16T05:01:31.814Z,93620.77
2023-04-16T05:02:08.561Z,93622.45
2023-04-16T05:02:42.332Z,93617.96
2023-04-16T05:03:22.483Z,93619.17
2023-04-16T05:03:56.599Z,93619.71
2023-04-16T05:04:31.622Z,93625.14
2023-04-16T05:05:06.182Z,93621.95
2023-04-16T05:05:41.558Z,93623.38
2023-04-16T05:06:14.878Z,93622.88
2023-04-16T05:06:48.234Z,93623.64
2023-04-16T05:07:22.485Z,93621.68
2023-04-16T05:07:55.874Z,93618.45
2023-04-16T05:08:29.197Z,93624.59
2023-04-16T05:09:02.536Z,93623.37
2023-04-16T05:09:36.178Z,93623.56
2023-04-16T05:10:10.240Z,93623.81
2023-04-16T05:10:43.543Z,93624.14
2023-04-16T05:11:17.211Z,93626.80
2023-04-16T05:11:53.465Z,93625.56
2023-04-16T05:12:27.304Z,93630.22
2023-04-16T05:13:01.191Z,93629.00
2023-04-16T05:13:35.976Z,93629.60
2023-04-16T05:14:10.047Z,93630.73
2023-04-16T05:14:46.493Z,93627.65
2023-04-16T05:15:19.959Z,93631.30
2023-04-16T05:15:53.455Z,93632.02
2023-04-16T05:16:26.767Z,93629.92
2023-04-16T05:17:00.274Z,93633.50
2023-04-16T05:17:33.958Z,93631.95
2023-04-16T05:18:07.461Z,93631.73
2023-04-16T05:18:41.026Z,93626.33
2023-04-16T05:19:14.844Z,93633.60
2023-04-16T05:19:48.319Z,93632.15
2023-04-16T05:20:24.666Z,93628.94
2023-04-16T05:20:57.972Z,93632.02
2023-04-16T05:21:31.545Z,93630.61
2023-04-16T05:22:05.090Z,93629.01
2023-04-16T05:22:38.487Z,93631.52
2023-04-16T05:23:11.883Z,93632.01
2023-04-16T05:23:45.492Z,93631.08
2023-04-16T05:24:20.019Z,93634.33
2023-04-16T05:24:53.965Z,93628.71
2023-04-16T05:25:28.700Z,93632.31
2023-04-16T05:26:02.127Z,93635.33
2023-04-16T05:26:35.613Z,93635.97
2023-04-16T05:27:08.913Z,93634.27
2023-04-16T05:27:42.226Z,93633.46
2023-04-16T05:28:15.531Z,93634.27
2023-04-16T05:28:49.011Z,93639.92
2023-04-16T05:29:22.462Z,93638.88
2023-04-16T05:29:56.014Z,93633.05
2023-04-16T05:30:29.590Z,93639.86
2023-04-16T05:31:03.024Z,93640.54
2023-04-16T05:31:36.640Z,93637.77
2023-04-16T05:32:09.988Z,93638.85
2023-04-16T05:32:43.284Z,93638.77
2023-04-16T05:33:16.718Z,93638.07
2023-04-16T05:33:50.027Z,93635.92
2023-04-16T05:34:23.250Z,93637.11
2023-04-16T05:34:56.721Z,93636.64
2023-04-16T05:35:30.966Z,93637.67
2023-04-16T05:36:05.566Z,93635.34
2023-04-16T05:36:39.475Z,93633.09
2023-04-16T05:37:12.768Z,93637.66
2023-04-16T05:37:47.155Z,93638.17
2023-04-16T05:38:20.895Z,93635.58
2023-04-16T05:38:56.751Z,93640.13
2023-04-16T05:39:30.112Z,93632.48
2023-04-16T05:40:04.280Z,93638.76
2023-04-16T05:40:37.666Z,93643.83
2023-04-16T05:41:11.115Z,93641.48
2023-04-16T05:41:44.619Z,93646.91
2023-04-16T05:42:17.990Z,93639.45
2023-04-16T05:42:51.435Z,93643.17
2023-04-16T05:43:24.998Z,93644.98
2023-04-16T05:43:58.421Z,93648.19
2023-04-16T05:44:31.737Z,93647.30
2023-04-16T05:45:05.830Z,93644.64
2023-04-16T05:45:41.403Z,93643.54
2023-04-16T05:46:14.881Z,93647.17
2023-04-16T05:46:48.265Z,93645.02
2023-04-16T05:47:21.788Z,93644.73
2023-04-16T05:47:55.379Z,93649.16
2023-04-16T05:48:28.914Z,93647.80
2023-04-16T05:49:02.446Z,93648.45
2023-04-16T05:49:39.720Z,93647.92
2023-04-16T05:50:13.113Z,93649.61
2023-04-16T05:50:46.526Z,93648.83
2023-04-16T05:51:20.410Z,93647.65
2023-04-16T05:51:53.904Z,93648.38
2023-04-16T05:52:27.278Z,93650.08
2023-04-16T05:53:00.759Z,93648.69
2023-04-16T05:53:34.454Z,93651.33
2023-04-16T05:54:07.964Z,93650.45
2023-04-16T05:54:41.635Z,93651.27
2023-04-16T05:55:15.008Z,93652.84
2023-04-16T05:55:48.503Z,93651.63
2023-04-16T05:56:22.268Z,93649.20
2023-04-16T05:56:55.740Z,93651.29
2023-04-16T05:57:30.440Z,93653.89
2023-04-16T05:58:06.994Z,93652.43
2023-04-16T05:58:40.437Z,93654.39
2023-04-16T05:59:13.876Z,93654.09
2023-04-16T05:59:47.319Z,93655.73
2023-04-16T06:00:21.300Z,93654.15
2023-04-16T06:00:54.871Z,93653.35
2023-04-16T06:01:28.344Z,93652.91
2023-04-16T06:02:01.803Z,93656.44
2023-04-16T06:02:35.582Z,93658.70
2023-04-16T06:03:09.440Z,93654.92
2023-04-16T06:03:43.118Z,93656.59
2023-04-16T06:04:16.590Z,93660.29
2023-04-16T06:04:50.176Z,93659.08
2023-04-16T06:05:23.511Z,93658.94
2023-04-16T06:05:56.997Z,93660.85
2023-04-16T06:06:30.372Z,93662.34
2023-04-16T06:07:03.962Z,93661.13
2023-04-16T06:07:37.374Z,93663.79
2023-04-16T06:08:10.792Z,93650.80
2023-04-16T06:08:44.319Z,93660.47
2023-04-16T06:09:18.608Z,93659.25
2023-04-16T06:09:52.126Z,93660.62
2023-04-16T06:10:25.634Z,93661.99
2023-04-16T06:10:59.097Z,93660.95
2023-04-16T06:11:33.582Z,93654.42
2023-04-16T06:12:08.190Z,93662.73
2023-04-16T06:12:41.851Z,93660.54
2023-04-16T06:13:15.378Z,93665.05
2023-04-16T06:13:48.809Z,93662.31
2023-04-16T06:14:25.127Z,93665.55
2023-04-16T06:14:58.501Z,93668.92
2023-04-16T06:15:31.893Z,93668.20
2023-04-16T06:16:05.775Z,93669.46
2023-04-16T06:16:39.207Z,93667.93
2023-04-16T06:17:12.638Z,93669.17
2023-04-16T06:17:46.015Z,93669.96
2023-04-16T06:18:19.337Z,93668.79
2023-04-16T06:18:52.761Z,93672.16
2023-04-16T06:19:26.158Z,93668.73
2023-04-16T06:19:59.623Z,93671.04
2023-04-16T06:20:32.865Z,93669.44
2023-04-16T06:21:06.421Z,93671.31
2023-04-16T06:21:39.861Z,93671.23
2023-04-16T06:22:13.235Z,93672.61
2023-04-16T06:22:46.567Z,93674.33
2023-04-16T06:23:19.987Z,93677.58
2023-04-16T06:23:54.631Z,93678.08
2023-04-16T06:24:27.979Z,93676.02
2023-04-16T06:25:01.306Z,93675.01
2023-04-16T06:25:34.702Z,93677.15
2023-04-16T06:26:08.078Z,93675.11
2023-04-16T06:26:41.461Z,93677.73
2023-04-16T06:27:14.834Z,93675.17
2023-04-16T06:27:48.204Z,93674.12
2023-04-16T06:28:21.760Z,93664.25
2023-04-16T06:28:55.078Z,93675.67
2023-04-16T06:29:40.696Z,93676.80
2023-04-16T06:30:16.344Z,93674.86
2023-04-16T06:30:50.582Z,93672.66
2023-04-16T06:31:25.022Z,93673.52
2023-04-16T06:31:58.362Z,93671.87
2023-04-16T06:32:31.796Z,93671.98
2023-04-16T06:33:05.525Z,93672.52
2023-04-16T06:33:38.895Z,93670.56
2023-04-16T06:34:12.142Z,93676.48
2023-04-16T06:34:45.528Z,93672.70
2023-04-16T06:35:20.413Z,93671.46
2023-04-16T06:35:53.673Z,93672.46
2023-04-16T06:36:27.936Z,93674.02
2023-04-16T06:37:01.688Z,93670.86
2023-04-16T06:37:35.601Z,93672.16
2023-04-16T06:38:08.953Z,93673.27
2023-04-16T06:38:42.675Z,93676.78
2023-04-16T06:39:16.105Z,93673.48
2023-04-16T06:39:49.456Z,93674.98
2023-04-16T06:40:22.970Z,93672.84
2023-04-16T06:40:56.800Z,93677.39
2023-04-16T06:41:30.832Z,93678.44
2023-04-16T06:42:04.508Z,93677.14
2023-04-16T06:42:37.886Z,93680.67
2023-04-16T06:43:12.025Z,93678.36
2023-04-16T06:43:45.819Z,93677.21
2023-04-16T06:44:19.210Z,93678.88
2023-04-16T06:44:52.496Z,93678.70
2023-04-16T06:45:25.857Z,93681.15
2023-04-16T06:45:59.260Z,93682.17